Kota Kinabalu International Airport
WBKK : now visible

Airfield :











YOU CAN JOIN US ON...

 
LOGIN :

Register | Disclaimer

   EN    FR    IT 

 









Legend :    VFR   Marginal VFR   IFR   Intensive IFR   Very Intensive IFR
Visi :
Ceiling :
>= 8 km
>= 3000ft
5 to 8 km
1000 to 3000 ft
1500m to 5 km
500 to 1000 ft
800 to 1500m
200 to 500 ft
< 800m
< 200 ft
Symbols :   Thunderstorms  Fog  Heavy snow  Heavy precipitations  Wind > 20 kt






- Airport Elevation : 10 ft
- IATA code : BKI


WBKK - Kota Kinabalu International

CURRENT METAR :
  • 181130Z 12003KT 070V150 9999 FEW014 FEW016CB SCT140 BKN270 29/26 Q1008 NOSIG

EXPIRED METARs :
  • 181100Z 13003KT 360V170 9999 FEW014 FEW016CB SCT140 BKN270 29/26 Q1008 NOSIG
  • 181030Z VRB02KT 9999 FEW014 FEW016CB SCT140 BKN270 29/27 Q1007 NOSIG
  • 181000Z 00000KT 9999 FEW014 FEW016CB SCT140 BKN270 30/26 Q1007 NOSIG
  • 180930Z 00000KT 9999 FEW014 SCT140 BKN270 30/26 Q1007 NOSIG

TAF TAF WBKK
Valid from the 18 at 12:00 until the 19 at 12:00 UTC


181100Z 1812/1912 11005KT 9999 FEW014
BECMG 1901/1903 29008KT
TEMPO 1907/1911 30010G22KT 5000 TSRA FEW013 FEW016CB SCT035



MET'MAP, your aeronautical weather chart ! - Copyright ORBIFLY December 2007 - Disclaimer

ORBIFLY MET'MAP TEAM :

Programming & Development : Alexandra Zaïnal
Concept & Development : Baudouin d'Aumeries
Co-Development & Prog : Marc-Olivier Méhu
Technical & hardware support : Manuel Goepfert

Contact : metmap@orbifly.com




SOURCES & CREDITS :

   NOAA       Earth
Advisory